createdAt,value
2023-03-13T00:00:25.149Z,11.40
2023-03-13T00:02:55.745Z,15.20
2023-03-13T00:05:24.453Z,15.20
2023-03-13T00:07:54.474Z,15.50
2023-03-13T00:10:23.258Z,12.80
2023-03-13T00:12:51.774Z,10.70
2023-03-13T00:15:27.426Z,11.10
2023-03-13T00:17:55.897Z,9.80
2023-03-13T00:20:24.381Z,10.10
2023-03-13T00:22:52.874Z,9.30
2023-03-13T00:25:21.939Z,8.10
2023-03-13T00:27:51.035Z,9.40
2023-03-13T00:30:23.318Z,10.00
2023-03-13T00:32:57.187Z,8.00
2023-03-13T00:35:25.733Z,10.10
2023-03-13T00:37:54.961Z,8.50
2023-03-13T00:40:27.548Z,9.20
2023-03-13T00:42:57.911Z,8.70
2023-03-13T00:45:27.193Z,9.80
2023-03-13T00:47:56.176Z,7.30
2023-03-13T00:50:29.089Z,7.40
2023-03-13T00:52:57.839Z,6.00
2023-03-13T00:55:26.289Z,6.70
2023-03-13T00:57:54.898Z,6.10
2023-03-13T01:00:23.555Z,8.80
2023-03-13T01:02:55.184Z,8.90
2023-03-13T01:05:24.234Z,7.70
2023-03-13T01:07:53.239Z,11.10
2023-03-13T01:10:27.245Z,7.40
2023-03-13T01:12:57.196Z,11.20
2023-03-13T01:15:26.502Z,10.40
2023-03-13T01:17:55.438Z,9.40
2023-03-13T01:20:30.223Z,10.10
2023-03-13T01:22:59.495Z,10.70
2023-03-13T01:25:37.612Z,12.10
2023-03-13T01:28:12.492Z,10.80
2023-03-13T01:30:41.254Z,10.30
2023-03-13T01:33:18.707Z,9.50
2023-03-13T01:35:53.218Z,7.80
2023-03-13T01:38:22.289Z,8.00
2023-03-13T01:40:51.518Z,9.50
2023-03-13T01:43:26.987Z,7.30
2023-03-13T01:46:01.979Z,7.10
2023-03-13T01:49:16.612Z,11.60
2023-03-13T01:52:04.730Z,7.80
2023-03-13T01:55:16.501Z,7.50
2023-03-13T01:57:51.057Z,7.20
2023-03-13T02:02:56.095Z,5.50
2023-03-13T02:05:26.435Z,5.20
2023-03-13T02:07:59.676Z,5.00
2023-03-13T02:10:28.987Z,6.50
2023-03-13T02:12:59.618Z,6.40
2023-03-13T02:15:32.133Z,4.70
2023-03-13T02:18:01.023Z,6.30
2023-03-13T02:20:35.762Z,6.10
2023-03-13T02:26:12.930Z,4.60
2023-03-13T02:28:47.069Z,7.60
2023-03-13T02:31:19.610Z,6.70
2023-03-13T02:33:49.060Z,9.10
2023-03-13T02:36:21.215Z,7.50
2023-03-13T02:38:59.916Z,8.20
2023-03-13T02:41:28.505Z,8.80
2023-03-13T02:44:01.522Z,9.40
2023-03-13T02:46:32.946Z,8.30
2023-03-13T02:49:20.393Z,14.30
2023-03-13T02:51:49.585Z,10.20
2023-03-13T02:54:32.505Z,12.00
2023-03-13T02:57:02.265Z,13.00
2023-03-13T02:59:31.277Z,13.70
2023-03-13T03:01:59.796Z,10.10
2023-03-13T03:04:28.556Z,13.80
2023-03-13T03:06:58.165Z,12.80
2023-03-13T03:09:27.096Z,13.60
2023-03-13T03:12:04.110Z,10.30
2023-03-13T03:14:34.589Z,10.90
2023-03-13T03:17:03.401Z,10.30
2023-03-13T03:19:38.391Z,11.60
2023-03-13T03:22:07.881Z,10.50
2023-03-13T03:24:36.358Z,9.30
2023-03-13T03:27:05.556Z,8.60
2023-03-13T03:29:39.182Z,7.40
2023-03-13T03:32:08.029Z,7.30
2023-03-13T03:34:37.010Z,7.00
2023-03-13T03:37:07.842Z,9.70
2023-03-13T03:39:38.050Z,7.20
2023-03-13T03:42:06.964Z,9.90
2023-03-13T03:44:36.769Z,6.60
2023-03-13T03:47:06.364Z,11.10
2023-03-13T03:49:37.868Z,5.60
2023-03-13T03:52:06.796Z,7.70
2023-03-13T03:54:39.528Z,7.50
2023-03-13T03:57:08.243Z,6.00
2023-03-13T03:59:39.579Z,9.30
2023-03-13T04:02:10.192Z,10.50
2023-03-13T04:04:39.057Z,11.10
2023-03-13T04:07:14.812Z,11.00
2023-03-13T04:09:43.347Z,13.30
2023-03-13T04:12:18.660Z,14.40
2023-03-13T04:14:49.322Z,13.70
2023-03-13T04:17:18.086Z,14.00
2023-03-13T04:19:48.856Z,10.60
2023-03-13T04:22:18.050Z,11.70
2023-03-13T04:24:51.748Z,11.20
2023-03-13T04:27:21.931Z,12.70
2023-03-13T04:29:51.710Z,11.40
2023-03-13T04:32:38.185Z,12.00
2023-03-13T04:35:24.987Z,9.20
2023-03-13T04:38:23.611Z,7.10
2023-03-13T04:41:00.834Z,8.20
2023-03-13T04:43:59.293Z,8.40
2023-03-13T04:47:03.821Z,9.90
2023-03-13T04:49:41.427Z,11.70
2023-03-13T04:52:25.968Z,16.60
2023-03-13T04:55:17.450Z,16.80
2023-03-13T04:57:59.520Z,12.30
2023-03-13T05:01:02.365Z,14.60
2023-03-13T05:03:48.771Z,14.20
2023-03-13T05:06:52.426Z,10.10
2023-03-13T05:09:49.043Z,14.70
2023-03-13T05:12:40.513Z,11.90
2023-03-13T05:15:26.015Z,13.70
2023-03-13T05:18:13.591Z,13.80
2023-03-13T05:21:09.188Z,17.30
2023-03-13T05:23:56.668Z,16.20
2023-03-13T05:26:52.648Z,22.30
2023-03-13T05:29:33.171Z,17.20
2023-03-13T05:32:12.363Z,23.30
2023-03-13T05:34:59.932Z,20.90
2023-03-13T05:37:51.672Z,19.70
2023-03-13T05:40:58.374Z,23.50
2023-03-13T05:43:39.790Z,20.30
2023-03-13T05:46:35.312Z,27.70
2023-03-13T05:49:26.974Z,25.30
2023-03-13T05:52:24.631Z,23.10
2023-03-13T05:55:13.350Z,19.40
2023-03-13T05:58:04.923Z,13.20
2023-03-13T06:01:08.509Z,13.90
2023-03-13T06:03:57.367Z,15.90
2023-03-13T06:06:27.351Z,11.30
2023-03-13T06:09:04.372Z,8.20
2023-03-13T06:11:35.382Z,7.00
2023-03-13T06:14:05.951Z,7.70
2023-03-13T06:16:43.405Z,8.00
2023-03-13T06:19:23.532Z,6.40
2023-03-13T06:21:53.762Z,7.20
2023-03-13T06:24:22.688Z,4.90
2023-03-13T06:26:51.415Z,5.30
2023-03-13T06:29:24.046Z,2.80
2023-03-13T06:31:53.678Z,7.20
2023-03-13T06:34:22.831Z,3.10
2023-03-13T06:36:51.484Z,3.50
2023-03-13T06:39:20.400Z,17.80
2023-03-13T06:41:49.531Z,21.10
2023-03-13T06:44:19.061Z,4.00
2023-03-13T06:46:50.111Z,6.80
2023-03-13T06:49:20.062Z,4.70
2023-03-13T06:51:53.832Z,4.00
2023-03-13T06:54:23.619Z,8.70
2023-03-13T06:56:54.150Z,2.90
2023-03-13T06:59:25.253Z,4.50
2023-03-13T07:01:54.893Z,3.70
2023-03-13T07:04:34.596Z,3.60
2023-03-13T07:07:07.561Z,4.10
2023-03-13T07:09:36.213Z,3.50
2023-03-13T07:12:05.848Z,10.70
2023-03-13T07:14:35.746Z,4.40
2023-03-13T07:17:04.598Z,3.20
2023-03-13T07:19:33.528Z,11.60
2023-03-13T07:22:02.296Z,5.40
2023-03-13T07:24:32.555Z,4.80
2023-03-13T07:27:07.430Z,2.90
2023-03-13T07:29:36.713Z,1.70
2023-03-13T07:32:06.487Z,3.80
2023-03-13T07:34:35.212Z,55.30
2023-03-13T07:37:05.011Z,12.80
2023-03-13T07:39:34.472Z,9.10
2023-03-13T07:42:07.577Z,3.40
2023-03-13T07:44:38.812Z,9.40
2023-03-13T07:47:07.776Z,3.20
2023-03-13T07:49:41.476Z,9.30
2023-03-13T07:52:10.453Z,3.00
2023-03-13T07:54:43.032Z,19.60
2023-03-13T07:57:13.462Z,3.10
2023-03-13T07:59:45.527Z,1.10
2023-03-13T08:02:22.670Z,1.30
2023-03-13T08:04:54.490Z,4.40
2023-03-13T08:07:23.564Z,2.40
2023-03-13T08:09:52.391Z,5.10
2023-03-13T08:12:23.723Z,2.40
2023-03-13T08:14:52.515Z,7.60
2023-03-13T08:17:22.911Z,2.50
2023-03-13T08:19:53.252Z,3.30
2023-03-13T08:22:22.171Z,3.50
2023-03-13T08:24:50.653Z,2.50
2023-03-13T08:27:20.677Z,3.70
2023-03-13T08:29:49.280Z,2.80
2023-03-13T08:32:22.457Z,4.40
2023-03-13T08:34:51.625Z,2.30
2023-03-13T08:37:20.074Z,2.60
2023-03-13T08:39:49.258Z,1.80
2023-03-13T08:42:18.299Z,1.60
2023-03-13T08:44:48.610Z,5.90
2023-03-13T08:47:18.817Z,8.20
2023-03-13T08:49:47.342Z,3.10
2023-03-13T08:52:15.969Z,7.80
2023-03-13T08:54:44.510Z,7.50
2023-03-13T08:57:12.997Z,3.20
2023-03-13T08:59:42.041Z,5.30
2023-03-13T09:02:19.135Z,2.00
2023-03-13T09:04:48.846Z,1.40
2023-03-13T09:07:17.583Z,2.30
2023-03-13T09:09:46.053Z,4.40
2023-03-13T09:12:29.640Z,1.70
2023-03-13T09:15:05.878Z,5.00
2023-03-13T09:17:36.499Z,3.10
2023-03-13T09:20:06.444Z,3.20
2023-03-13T09:22:35.629Z,1.40
2023-03-13T09:25:04.322Z,3.30
2023-03-13T09:27:41.478Z,9.00
2023-03-13T09:30:12.218Z,29.30
2023-03-13T09:32:40.958Z,35.10
2023-03-13T09:35:09.984Z,5.30
2023-03-13T09:37:38.535Z,9.10
2023-03-13T09:40:10.717Z,21.10
2023-03-13T09:42:46.874Z,10.20
2023-03-13T09:45:36.556Z,15.30
2023-03-13T09:48:39.459Z,8.70
2023-03-13T09:51:21.445Z,4.40
2023-03-13T09:53:55.192Z,6.80
2023-03-13T09:56:25.679Z,4.20
2023-03-13T09:58:56.580Z,6.50
2023-03-13T10:01:28.984Z,7.00
2023-03-13T10:04:41.915Z,5.70
2023-03-13T10:07:13.377Z,5.20
2023-03-13T10:09:43.396Z,3.20
2023-03-13T10:12:22.003Z,8.70
2023-03-13T10:17:42.910Z,7.40
2023-03-13T10:20:17.454Z,11.50
2023-03-13T10:22:49.527Z,9.30
2023-03-13T10:25:34.715Z,5.80
2023-03-13T10:28:05.369Z,4.70
2023-03-13T10:30:35.981Z,5.90
2023-03-13T10:33:08.472Z,3.10
2023-03-13T10:35:39.869Z,8.20
2023-03-13T10:38:16.340Z,8.10
2023-03-13T10:41:01.899Z,14.30
2023-03-13T10:43:31.236Z,12.40
2023-03-13T10:46:24.656Z,8.20
2023-03-13T10:48:55.531Z,13.70
2023-03-13T10:51:31.986Z,12.70
2023-03-13T10:54:01.071Z,12.40
2023-03-13T10:56:30.546Z,16.10
2023-03-13T10:58:59.282Z,14.60
2023-03-13T11:01:40.014Z,12.90
2023-03-13T11:04:34.967Z,11.90
2023-03-13T11:07:16.280Z,9.90
2023-03-13T11:10:19.033Z,10.50
2023-03-13T11:12:55.528Z,13.00
2023-03-13T11:15:52.618Z,11.20
2023-03-13T11:18:32.617Z,12.00
2023-03-13T11:21:17.549Z,9.70
2023-03-13T11:23:50.644Z,11.80
2023-03-13T11:26:22.844Z,7.10
2023-03-13T11:28:59.833Z,8.50
2023-03-13T11:31:34.431Z,7.90
2023-03-13T11:34:18.852Z,9.10
2023-03-13T11:36:56.556Z,14.90
2023-03-13T11:39:44.644Z,16.20
2023-03-13T11:42:40.095Z,11.60
2023-03-13T11:45:34.124Z,18.30
2023-03-13T11:48:09.073Z,11.00
2023-03-13T11:50:38.224Z,13.10
2023-03-13T11:53:10.328Z,12.00
2023-03-13T11:55:58.515Z,10.20
2023-03-13T11:58:49.756Z,10.30
2023-03-13T12:01:21.599Z,10.00
2023-03-13T12:04:00.652Z,14.00
2023-03-13T12:06:38.670Z,11.10
2023-03-13T12:09:13.041Z,10.40
2023-03-13T12:12:05.188Z,13.10
2023-03-13T12:14:57.039Z,12.60
2023-03-13T12:18:17.703Z,11.90
2023-03-13T12:21:05.889Z,6.80
2023-03-13T12:23:46.194Z,8.90
2023-03-13T12:26:15.848Z,12.30
2023-03-13T12:29:19.118Z,9.20
2023-03-13T12:32:25.620Z,13.20
2023-03-13T12:34:56.866Z,11.50
2023-03-13T12:37:45.944Z,8.10
2023-03-13T12:40:24.982Z,10.00
2023-03-13T12:43:03.323Z,11.70
2023-03-13T12:45:33.196Z,9.90
2023-03-13T12:48:14.583Z,8.50
2023-03-13T12:50:58.318Z,10.10
2023-03-13T12:53:51.345Z,7.00
2023-03-13T12:56:56.615Z,8.10
2023-03-13T12:59:31.626Z,7.30
2023-03-13T13:02:06.555Z,7.00
2023-03-13T13:04:42.997Z,12.60
2023-03-13T13:07:56.823Z,8.30
2023-03-13T13:10:27.046Z,6.00
2023-03-13T13:13:18.503Z,4.60
2023-03-13T13:16:06.270Z,6.30
2023-03-13T13:18:34.943Z,4.40
2023-03-13T13:21:03.383Z,6.30
2023-03-13T13:23:39.232Z,4.90
2023-03-13T13:26:37.731Z,4.70
2023-03-13T13:29:12.575Z,4.80
2023-03-13T13:31:51.923Z,2.70
2023-03-13T13:35:07.182Z,6.90
2023-03-13T13:37:35.961Z,3.40
2023-03-13T13:40:17.085Z,4.50
2023-03-13T13:42:52.694Z,6.60
2023-03-13T13:45:25.941Z,5.50
2023-03-13T13:48:34.125Z,2.20
2023-03-13T13:51:12.295Z,3.30
2023-03-13T13:53:47.936Z,2.50
2023-03-13T13:56:29.324Z,3.90
2023-03-13T13:59:25.113Z,2.20
2023-03-13T14:02:10.552Z,2.90
2023-03-13T14:04:53.926Z,4.60
2023-03-13T14:07:38.108Z,2.40
2023-03-13T14:10:59.956Z,2.10
2023-03-13T14:13:28.426Z,2.30
2023-03-13T14:15:56.882Z,3.00
2023-03-13T14:18:30.952Z,2.00
2023-03-13T14:21:01.654Z,2.80
2023-03-13T14:23:44.588Z,2.80
2023-03-13T14:26:13.182Z,2.10
2023-03-13T14:28:44.325Z,1.80
2023-03-13T14:31:22.331Z,6.00
2023-03-13T14:33:51.099Z,4.80
2023-03-13T14:36:19.739Z,5.60
2023-03-13T14:39:01.326Z,2.40
2023-03-13T14:41:31.538Z,2.70
2023-03-13T14:44:07.429Z,1.70
2023-03-13T14:46:36.443Z,5.10
2023-03-13T14:49:19.926Z,2.50
2023-03-13T14:52:23.516Z,3.90
2023-03-13T14:54:54.895Z,1.90
2023-03-13T14:57:28.013Z,3.70
2023-03-13T15:00:35.565Z,2.80
2023-03-13T15:03:17.132Z,4.20
2023-03-13T15:05:51.062Z,4.80
2023-03-13T15:08:22.382Z,3.30
2023-03-13T15:10:54.869Z,2.00
2023-03-13T15:13:25.736Z,5.50
2023-03-13T15:15:54.609Z,2.30
2023-03-13T15:18:32.065Z,7.80
2023-03-13T15:21:18.874Z,5.40
2023-03-13T15:23:56.780Z,2.90
2023-03-13T15:26:26.776Z,1.60
2023-03-13T15:31:38.442Z,3.30
2023-03-13T15:34:09.673Z,2.00
2023-03-13T15:36:41.990Z,2.70
2023-03-13T15:39:16.843Z,3.30
2023-03-13T15:41:45.705Z,5.00
2023-03-13T15:44:15.149Z,7.90
2023-03-13T15:46:44.027Z,6.80
2023-03-13T15:49:13.521Z,7.90
2023-03-13T15:51:44.139Z,14.80
2023-03-13T15:54:14.209Z,19.60
2023-03-13T15:56:43.043Z,11.10
2023-03-13T15:59:12.813Z,8.20
2023-03-13T16:01:44.643Z,13.10
2023-03-13T16:04:14.126Z,15.90
2023-03-13T16:06:43.372Z,14.50
2023-03-13T16:09:14.381Z,9.00
2023-03-13T16:11:42.982Z,7.50
2023-03-13T16:14:11.494Z,14.50
2023-03-13T16:16:45.962Z,17.90
2023-03-13T16:19:14.391Z,18.00
2023-03-13T16:21:48.525Z,17.90
2023-03-13T16:24:21.172Z,17.40
2023-03-13T16:26:51.206Z,16.90
2023-03-13T16:29:19.724Z,16.20
2023-03-13T16:31:48.528Z,10.70
2023-03-13T16:34:17.010Z,14.30
2023-03-13T16:36:45.453Z,12.80
2023-03-13T16:39:17.189Z,13.40
2023-03-13T16:41:46.443Z,12.70
2023-03-13T16:44:18.720Z,13.40
2023-03-13T16:47:02.800Z,17.70
2023-03-13T16:49:34.035Z,16.40
2023-03-13T16:52:02.764Z,35.10
2023-03-13T16:54:31.968Z,45.50
2023-03-13T16:57:04.622Z,43.40
2023-03-13T16:59:33.039Z,56.70
2023-03-13T17:02:02.460Z,79.00
2023-03-13T17:04:31.834Z,69.20
2023-03-13T17:07:00.947Z,76.70
2023-03-13T17:09:35.823Z,77.40
2023-03-13T17:12:05.008Z,61.10
2023-03-13T17:14:33.443Z,49.50
2023-03-13T17:17:04.880Z,41.90
2023-03-13T17:19:35.135Z,36.10
2023-03-13T17:22:04.329Z,44.90
2023-03-13T17:24:32.746Z,34.50
2023-03-13T17:27:04.538Z,32.20
2023-03-13T17:29:34.124Z,36.60
2023-03-13T17:32:04.146Z,71.50
2023-03-13T17:34:34.158Z,99.80
2023-03-13T17:37:05.122Z,97.80
2023-03-13T17:39:33.781Z,72.40
2023-03-13T17:42:05.775Z,64.30
2023-03-13T17:44:34.554Z,52.80
2023-03-13T17:47:02.959Z,52.40
2023-03-13T17:49:32.553Z,47.00
2023-03-13T17:52:00.953Z,45.90
2023-03-13T17:54:29.868Z,54.20
2023-03-13T17:56:58.255Z,43.30
2023-03-13T17:59:29.499Z,56.80
2023-03-13T18:01:58.965Z,66.90
2023-03-13T18:04:29.060Z,77.90
2023-03-13T18:06:58.352Z,71.00
2023-03-13T18:09:26.759Z,60.90
2023-03-13T18:11:55.788Z,45.30
2023-03-13T18:14:25.193Z,42.10
2023-03-13T18:16:57.394Z,42.80
2023-03-13T18:19:27.159Z,45.90
2023-03-13T18:21:56.057Z,50.60
2023-03-13T18:24:28.660Z,66.20
2023-03-13T18:26:57.377Z,86.50
2023-03-13T18:29:29.536Z,95.50
2023-03-13T18:32:00.722Z,77.30
2023-03-13T18:34:29.614Z,71.90
2023-03-13T18:37:11.930Z,54.50
2023-03-13T18:39:41.812Z,58.20
2023-03-13T18:42:10.885Z,41.10
2023-03-13T18:44:40.355Z,33.90
2023-03-13T18:47:13.184Z,32.40
2023-03-13T18:49:41.748Z,34.50
2023-03-13T18:52:11.155Z,32.50
2023-03-13T18:54:45.263Z,31.90
2023-03-13T18:57:15.499Z,30.90
2023-03-13T18:59:44.297Z,36.50
2023-03-13T19:02:18.062Z,35.80
2023-03-13T19:04:47.369Z,47.20
2023-03-13T19:07:26.484Z,60.00
2023-03-13T19:09:55.056Z,62.10
2023-03-13T19:12:23.752Z,60.60
2023-03-13T19:14:53.448Z,59.00
2023-03-13T19:17:27.214Z,67.00
2023-03-13T19:19:57.640Z,63.00
2023-03-13T19:22:26.689Z,70.80
2023-03-13T19:24:55.936Z,93.50
2023-03-13T19:27:25.787Z,92.10
2023-03-13T19:29:54.495Z,72.30
2023-03-13T19:32:23.055Z,48.90
2023-03-13T19:34:52.087Z,53.80
2023-03-13T19:37:21.113Z,52.20
2023-03-13T19:39:51.017Z,48.50
2023-03-13T19:42:19.769Z,46.50
2023-03-13T19:44:50.635Z,36.80
2023-03-13T19:47:19.196Z,30.90
2023-03-13T19:49:50.165Z,26.90
2023-03-13T19:52:19.561Z,26.20
2023-03-13T19:54:48.468Z,28.50
2023-03-13T19:57:18.143Z,29.00
2023-03-13T19:59:47.326Z,44.90
2023-03-13T20:02:17.989Z,31.40
2023-03-13T20:04:46.506Z,42.80
2023-03-13T20:07:14.958Z,76.70
2023-03-13T20:09:48.930Z,53.40
2023-03-13T20:12:17.697Z,48.10
2023-03-13T20:14:47.046Z,36.40
2023-03-13T20:17:15.445Z,46.20
2023-03-13T20:19:43.966Z,39.50
2023-03-13T20:22:14.414Z,42.80
2023-03-13T20:24:43.729Z,40.80
2023-03-13T20:27:13.321Z,32.70
2023-03-13T20:29:41.746Z,38.90
2023-03-13T20:32:11.631Z,42.00
2023-03-13T20:34:40.118Z,70.10
2023-03-13T20:37:08.605Z,85.60
2023-03-13T20:39:37.731Z,103.80
2023-03-13T20:42:10.504Z,98.40
2023-03-13T20:44:39.009Z,70.50
2023-03-13T20:47:07.632Z,46.90
2023-03-13T20:49:36.181Z,36.30
2023-03-13T20:52:05.795Z,31.10
2023-03-13T20:54:34.820Z,59.40
2023-03-13T20:57:08.978Z,57.30
2023-03-13T20:59:38.646Z,85.60
2023-03-13T21:02:07.364Z,157.40
2023-03-13T21:04:38.015Z,167.50
2023-03-13T21:07:06.731Z,106.50
2023-03-13T21:09:36.952Z,75.10
2023-03-13T21:12:05.674Z,100.00
2023-03-13T21:14:36.605Z,101.90
2023-03-13T21:17:05.147Z,68.00
2023-03-13T21:19:34.460Z,58.60
2023-03-13T21:22:03.322Z,51.00
2023-03-13T21:24:33.755Z,41.50
2023-03-13T21:27:02.196Z,39.90
2023-03-13T21:29:37.849Z,49.00
2023-03-13T21:32:07.717Z,70.70
2023-03-13T21:34:36.160Z,103.10
2023-03-13T21:37:06.046Z,70.50
2023-03-13T21:39:35.210Z,56.10
2023-03-13T21:42:04.533Z,41.40
2023-03-13T21:44:34.501Z,29.30
2023-03-13T21:47:02.957Z,24.20
2023-03-13T21:49:32.890Z,18.80
2023-03-13T21:52:01.350Z,20.90
2023-03-13T21:54:30.169Z,16.80
2023-03-13T21:56:58.862Z,21.00
2023-03-13T21:59:35.384Z,21.70
2023-03-13T22:02:04.407Z,19.30
2023-03-13T22:04:33.730Z,18.10
2023-03-13T22:07:03.130Z,16.40
2023-03-13T22:09:33.156Z,16.60
2023-03-13T22:12:05.630Z,17.70
2023-03-13T22:14:34.032Z,16.70
2023-03-13T22:17:02.471Z,12.10
2023-03-13T22:19:32.069Z,13.90
2023-03-13T22:22:02.440Z,18.90
2023-03-13T22:24:30.864Z,14.50
2023-03-13T22:26:59.255Z,14.70
2023-03-13T22:29:30.704Z,8.40
2023-03-13T22:31:59.338Z,10.40
2023-03-13T22:34:28.117Z,9.30
2023-03-13T22:36:58.760Z,10.30
2023-03-13T22:39:28.225Z,7.90
2023-03-13T22:41:56.733Z,11.60
2023-03-13T22:44:26.251Z,11.60
2023-03-13T22:46:54.977Z,11.50
2023-03-13T22:49:23.929Z,10.30
2023-03-13T22:51:52.503Z,10.00
2023-03-13T22:54:20.938Z,14.20
2023-03-13T22:56:49.642Z,12.60
2023-03-13T22:59:18.320Z,19.70
2023-03-13T23:01:47.090Z,32.30
2023-03-13T23:04:15.736Z,42.60
2023-03-13T23:06:44.129Z,33.60
2023-03-13T23:09:15.311Z,34.10
2023-03-13T23:11:44.164Z,39.10
2023-03-13T23:14:14.066Z,36.30
2023-03-13T23:16:43.035Z,26.30
2023-03-13T23:19:11.697Z,24.20
2023-03-13T23:21:40.763Z,22.40
2023-03-13T23:24:09.433Z,22.10
2023-03-13T23:26:37.903Z,22.00
2023-03-13T23:29:06.615Z,22.60
2023-03-13T23:31:35.649Z,22.40
2023-03-13T23:34:04.375Z,19.10
2023-03-13T23:36:33.423Z,14.90
2023-03-13T23:39:05.503Z,17.50
2023-03-13T23:41:35.114Z,37.00
2023-03-13T23:44:03.610Z,32.40
2023-03-13T23:46:32.540Z,23.80
2023-03-13T23:49:01.267Z,20.90
2023-03-13T23:51:32.023Z,26.20
2023-03-13T23:54:00.658Z,19.60
2023-03-13T23:56:30.855Z,19.40
2023-03-13T23:58:59.594Z,28.40
